Time;durP1;ratioP1;P1;durP2;ratioP2;P2;SDS_P1;SDS_P2;PMS_P1;PMS_P2;Temp;Humidity;BMP_temperature;BMP_pressure;BME280_temperature;BME280_humidity;BME280_pressure;Samples;Min_cycle;Max_cycle;Signal;HPM_P1;HPM_P2
2021/10/24 00:01:22;;;;;;;17.25;7.45;;;;;;;0.17;95.61;96574.69;5048375;28;20041;-81
2021/10/24 00:03:48;;;;;;;13.18;6.75;;;;;;;0.10;96.04;96558.25;5026690;28;20037;-81
2021/10/24 00:06:14;;;;;;;16.13;6.97;;;;;;;0.01;96.06;96559.28;5036557;28;20064;-90
2021/10/24 00:08:40;;;;;;;17.40;7.88;;;;;;;0.07;95.24;96568.97;5052288;28;20033;-82
2021/10/24 00:11:06;;;;;;;16.38;6.85;;;;;;;0.07;95.54;96568.97;5027458;28;20045;-82
2021/10/24 00:13:32;;;;;;;18.70;7.30;;;;;;;0.08;95.86;96560.19;5047720;28;20563;-82
2021/10/24 00:15:59;;;;;;;19.55;7.50;;;;;;;0.00;95.38;96560.31;5064577;28;20044;-83
2021/10/24 00:18:26;;;;;;;16.90;7.78;;;;;;;-0.15;95.96;96562.84;5049615;28;20051;-82
2021/10/24 00:20:53;;;;;;;21.98;8.10;;;;;;;-0.10;96.39;96570.91;5068422;28;20410;-82
2021/10/24 00:23:19;;;;;;;16.20;7.97;;;;;;;-0.07;96.03;96567.94;5066895;28;20056;-83
2021/10/24 00:25:45;;;;;;;17.75;7.53;;;;;;;-0.09;95.93;96548.41;5050350;28;20041;-82
2021/10/24 00:28:11;;;;;;;19.75;7.57;;;;;;;-0.11;96.24;96555.53;5035501;28;20049;-83
2021/10/24 00:30:37;;;;;;;17.65;7.13;;;;;;;-0.08;95.61;96550.81;5069636;28;20494;-83
2021/10/24 00:33:04;;;;;;;14.38;6.97;;;;;;;-0.16;96.49;96544.91;5071726;28;20053;-82
2021/10/24 00:35:29;;;;;;;17.67;6.80;;;;;;;-0.09;95.71;96538.06;5030643;28;20060;-82
2021/10/24 00:37:55;;;;;;;15.68;7.05;;;;;;;-0.08;95.86;96539.66;5054235;28;20048;-83
2021/10/24 00:40:20;;;;;;;14.90;6.88;;;;;;;-0.20;97.00;96542.69;5043871;28;20052;-82
2021/10/24 00:42:52;;;;;;;16.33;6.75;;;;;;;-0.27;95.93;96541.78;5031774;28;20050;-83
2021/10/24 00:45:18;;;;;;;16.23;6.13;;;;;;;-0.22;95.88;96539.44;5065455;28;20040;-81
2021/10/24 00:47:44;;;;;;;16.75;6.30;;;;;;;-0.27;95.80;96535.81;5062087;28;20387;-82
2021/10/24 00:50:10;;;;;;;17.05;7.00;;;;;;;-0.25;96.67;96536.41;5030406;28;20056;-83
2021/10/24 00:52:37;;;;;;;18.42;6.85;;;;;;;-0.27;96.40;96535.81;5051781;28;20491;-82
2021/10/24 00:55:03;;;;;;;17.83;5.95;;;;;;;-0.23;95.90;96530.09;5066420;28;20555;-82
2021/10/24 00:57:28;;;;;;;16.63;6.60;;;;;;;-0.22;95.66;96523.91;5035617;28;20060;-82
2021/10/24 00:59:54;;;;;;;16.15;6.72;;;;;;;-0.25;95.72;96523.50;5035397;28;20040;-82
2021/10/24 01:02:20;;;;;;;16.58;6.45;;;;;;;-0.28;95.98;96524.63;5051340;28;20037;-83
2021/10/24 01:04:46;;;;;;;16.40;6.50;;;;;;;-0.27;95.81;96521.06;5055186;28;20490;-82
2021/10/24 01:07:13;;;;;;;17.02;6.72;;;;;;;-0.34;96.64;96520.16;5051205;28;20057;-82
2021/10/24 01:09:39;;;;;;;17.95;6.78;;;;;;;-0.45;96.10;96512.81;5048536;28;20395;-83
2021/10/24 01:12:04;;;;;;;18.00;6.47;;;;;;;-0.38;96.39;96513.72;5031735;28;20053;-81
2021/10/24 01:14:30;;;;;;;13.05;6.55;;;;;;;-0.44;95.83;96517.03;5031424;28;20049;-83
2021/10/24 01:16:56;;;;;;;15.75;6.55;;;;;;;-0.45;95.91;96497.31;5053898;28;20041;-82
2021/10/24 01:19:22;;;;;;;13.35;6.40;;;;;;;-0.48;96.47;96513.19;5047578;28;20049;-82
2021/10/24 01:21:48;;;;;;;13.45;6.05;;;;;;;-0.47;96.29;96509.63;5031707;28;20049;-82
2021/10/24 01:24:14;;;;;;;17.20;6.75;;;;;;;-0.49;96.59;96490.88;5048731;28;20048;-82
2021/10/24 01:26:41;;;;;;;18.70;6.63;;;;;;;-0.58;97.30;96501.28;5050690;28;20044;-82
2021/10/24 01:29:10;;;;;;;17.02;6.88;;;;;;;-0.51;96.42;96498.03;5065970;28;20036;-81
2021/10/24 01:31:37;;;;;;;17.27;6.82;;;;;;;-0.56;96.74;96498.53;5053346;28;20040;-82
2021/10/24 01:34:04;;;;;;;12.70;6.70;;;;;;;-0.47;96.64;96499.28;5052741;28;20044;-82
2021/10/24 01:36:30;;;;;;;13.43;6.63;;;;;;;-0.59;96.30;96489.34;5044932;28;20033;-82
2021/10/24 01:38:56;;;;;;;17.48;6.47;;;;;;;-0.45;96.13;96497.31;5051315;28;20040;-82
2021/10/24 01:41:24;;;;;;;12.80;6.50;;;;;;;-0.60;96.83;96490.31;5052185;28;20056;-82
2021/10/24 01:43:51;;;;;;;15.90;6.28;;;;;;;-0.47;96.28;96496.69;5013050;28;20042;-82
2021/10/24 01:46:17;;;;;;;24.15;6.55;;;;;;;-0.55;96.04;96495.78;5042714;28;20041;-82
2021/10/24 01:48:43;;;;;;;15.18;6.45;;;;;;;-0.64;96.58;96478.72;5027164;28;20025;-82
2021/10/24 01:51:10;;;;;;;13.77;6.03;;;;;;;-0.66;96.71;96485.84;5061847;28;20044;-82
2021/10/24 01:53:38;;;;;;;21.52;6.90;;;;;;;-0.60;96.81;96477.41;5055471;28;20051;-83
2021/10/24 01:56:05;;;;;;;15.43;6.32;;;;;;;-0.71;96.94;96477.81;5051041;28;20041;-83
2021/10/24 01:58:32;;;;;;;13.40;5.60;;;;;;;-0.71;96.87;96477.81;5070803;28;20490;-83
2021/10/24 02:00:58;;;;;;;15.35;5.93;;;;;;;-0.61;96.33;96472.41;5043171;28;20052;-83
2021/10/24 02:03:23;;;;;;;13.35;5.80;;;;;;;-0.68;96.64;96471.50;5051010;28;20041;-83
2021/10/24 02:05:49;;;;;;;16.05;5.95;;;;;;;-0.70;96.32;96461.34;5046388;28;20087;-82
2021/10/24 02:08:15;;;;;;;11.60;5.93;;;;;;;-0.64;96.15;96463.22;5062590;28;20039;-83
2021/10/24 02:10:41;;;;;;;10.30;5.47;;;;;;;-0.75;96.76;96466.22;5040075;28;20083;-83
2021/10/24 02:13:08;;;;;;;19.70;6.85;;;;;;;-0.89;97.40;96471.16;5044025;28;20040;-82
2021/10/24 02:15:35;;;;;;;11.32;5.53;;;;;;;-0.74;96.83;96462.66;5041723;28;20045;-83
2021/10/24 02:18:01;;;;;;;11.57;5.90;;;;;;;-0.64;96.49;96463.22;5051280;28;20041;-83
2021/10/24 02:20:29;;;;;;;15.30;6.03;;;;;;;-0.57;96.59;96458.94;5043912;28;20033;-83
2021/10/24 02:22:55;;;;;;;15.02;6.15;;;;;;;-0.70;96.80;96459.53;5069244;28;20063;-82
2021/10/24 02:25:21;;;;;;;15.27;6.05;;;;;;;-0.74;96.18;96452.31;5070120;28;20117;-82
2021/10/24 02:27:48;;;;;;;14.55;6.32;;;;;;;-0.87;98.35;96453.69;5051529;28;20041;-83
2021/10/24 02:30:16;;;;;;;16.75;5.97;;;;;;;-0.82;97.54;96449.78;5062502;28;20041;-83
2021/10/24 02:32:42;;;;;;;15.02;5.72;;;;;;;-0.75;96.48;96455.88;5050343;28;20045;-83
2021/10/24 02:35:10;;;;;;;12.63;6.07;;;;;;;-0.74;97.07;96457.47;5039046;28;20502;-82
2021/10/24 02:37:36;;;;;;;13.40;5.53;;;;;;;-0.72;95.92;96460.69;5029971;28;20068;-81
2021/10/24 02:40:02;;;;;;;10.63;6.05;;;;;;;-0.72;96.28;96460.69;5031690;28;20534;-81
2021/10/24 02:42:28;;;;;;;15.18;6.97;;;;;;;-0.77;96.86;96457.84;5049625;28;20396;-81
2021/10/24 02:44:54;;;;;;;18.52;6.97;;;;;;;-0.79;96.92;96452.03;5030771;28;20041;-83
2021/10/24 02:47:20;;;;;;;18.02;6.43;;;;;;;-0.79;97.95;96454.59;5032043;28;20069;-82
2021/10/24 02:49:47;;;;;;;14.85;6.53;;;;;;;-0.72;97.70;96450.34;5060370;28;20102;-82
2021/10/24 02:52:14;;;;;;;15.82;6.43;;;;;;;-0.73;97.28;96448.75;5056731;28;20068;-82
2021/10/24 02:54:39;;;;;;;13.35;5.72;;;;;;;-0.63;95.93;96449.31;5051948;28;20048;-82
2021/10/24 02:57:05;;;;;;;11.60;4.97;;;;;;;-0.80;96.85;96442.69;5043191;28;20106;-82
2021/10/24 02:59:32;;;;;;;17.95;5.50;;;;;;;-0.78;96.66;96436.34;5052612;28;20049;-82
2021/10/24 03:01:58;;;;;;;12.00;5.88;;;;;;;-0.70;96.71;96445.81;5049167;28;20048;-82
2021/10/24 03:04:23;;;;;;;15.98;5.93;;;;;;;-0.67;96.59;96432.53;5059244;28;20045;-82
2021/10/24 03:06:49;;;;;;;17.10;6.82;;;;;;;-0.79;97.34;96433.94;5037529;28;20119;-82
2021/10/24 03:09:15;;;;;;;18.98;6.53;;;;;;;-0.80;97.32;96438.31;5043952;28;20732;-82
2021/10/24 03:11:41;;;;;;;13.45;6.50;;;;;;;-0.77;97.22;96443.13;5037603;28;20048;-82
2021/10/24 03:14:07;;;;;;;14.80;6.32;;;;;;;-0.77;96.99;96442.31;5058876;28;20041;-83
2021/10/24 03:16:34;;;;;;;12.35;6.38;;;;;;;-0.81;97.44;96435.91;5037073;28;20036;-83
2021/10/24 03:19:00;;;;;;;20.63;6.57;;;;;;;-0.82;97.20;96444.63;5040130;28;20049;-82
2021/10/24 03:21:26;;;;;;;15.55;6.30;;;;;;;-0.93;98.14;96438.88;5046983;28;20057;-82
2021/10/24 03:23:51;;;;;;;17.10;6.85;;;;;;;-0.85;97.16;96439.81;5031106;28;20388;-82
2021/10/24 03:26:18;;;;;;;12.23;5.75;;;;;;;-0.84;96.70;96441.41;5043124;28;20036;-82
2021/10/24 03:28:43;;;;;;;12.45;6.35;;;;;;;-0.95;96.82;96440.84;5049899;28;20141;-83
2021/10/24 03:31:09;;;;;;;16.15;6.10;;;;;;;-0.92;97.05;96444.84;5049540;28;20798;-81
2021/10/24 03:33:34;;;;;;;14.27;6.28;;;;;;;-0.92;96.85;96445.69;5055947;28;20045;-83
2021/10/24 03:36:00;;;;;;;17.50;5.90;;;;;;;-0.97;96.80;96432.47;5043580;28;20090;-83
2021/10/24 03:38:26;;;;;;;12.85;5.53;;;;;;;-0.96;96.63;96439.25;5043014;28;20047;-83
2021/10/24 03:40:51;;;;;;;20.40;6.45;;;;;;;-1.05;96.84;96440.25;5033078;28;20047;-81
2021/10/24 03:43:17;;;;;;;15.15;6.03;;;;;;;-1.16;97.74;96438.09;5068662;28;20383;-83
2021/10/24 03:45:42;;;;;;;15.48;6.38;;;;;;;-1.23;98.99;96446.53;5067079;28;20036;-82
2021/10/24 03:48:08;;;;;;;18.40;6.28;;;;;;;-1.09;97.93;96444.19;5047500;28;20049;-82
2021/10/24 03:50:33;;;;;;;16.52;6.88;;;;;;;-0.98;97.52;96446.34;5031898;28;20045;-82
2021/10/24 03:52:59;;;;;;;14.98;6.50;;;;;;;-1.02;97.44;96445.13;5058770;28;20128;-82
2021/10/24 03:55:26;;;;;;;19.23;6.53;;;;;;;-1.08;97.34;96440.63;5055035;28;20052;-83
2021/10/24 03:57:51;;;;;;;15.38;6.70;;;;;;;-0.97;97.78;96442.78;5034588;28;20047;-83
2021/10/24 04:00:17;;;;;;;13.02;6.05;;;;;;;-1.08;97.47;96440.63;5046034;28;20044;-84
2021/10/24 04:02:57;;;;;;;16.05;6.07;;;;;;;-1.22;98.46;96440.38;5065856;28;20040;-83
2021/10/24 04:05:23;;;;;;;15.15;6.47;;;;;;;-1.15;97.92;96439.69;5042709;28;20056;-83
2021/10/24 04:07:50;;;;;;;17.83;7.00;;;;;;;-1.24;98.65;96442.31;5025694;28;20159;-83
2021/10/24 04:10:17;;;;;;;17.58;7.15;;;;;;;-1.23;98.76;96443.94;5027899;28;20072;-84
2021/10/24 04:12:43;;;;;;;17.88;7.15;;;;;;;-1.17;97.76;96441.66;5063733;28;20041;-83
2021/10/24 04:15:09;;;;;;;13.60;6.00;;;;;;;-1.17;97.54;96436.50;5048833;28;20106;-84
2021/10/24 04:17:34;;;;;;;16.25;6.40;;;;;;;-1.19;97.28;96438.44;5039275;28;20036;-82
2021/10/24 04:20:00;;;;;;;14.68;6.65;;;;;;;-1.24;97.62;96432.00;5031038;28;20122;-83
2021/10/24 04:22:28;;;;;;;12.98;6.38;;;;;;;-1.22;96.99;96435.22;5038045;28;20049;-82
2021/10/24 04:24:54;;;;;;;17.38;6.07;;;;;;;-1.18;97.13;96424.53;5011699;28;20231;-82
2021/10/24 04:27:20;;;;;;;14.57;6.28;;;;;;;-1.19;97.13;96433.25;5040796;28;20041;-83
2021/10/24 04:29:45;;;;;;;19.13;6.72;;;;;;;-1.33;97.37;96430.47;5069297;28;20730;-83
2021/10/24 04:32:11;;;;;;;14.25;6.78;;;;;;;-1.46;98.16;96435.38;5065504;28;20045;-83
2021/10/24 04:34:36;;;;;;;18.63;7.30;;;;;;;-1.62;99.77;96439.66;5051683;28;20048;-83
2021/10/24 04:37:02;;;;;;;14.07;6.90;;;;;;;-1.56;98.88;96422.69;5034409;28;20036;-83
2021/10/24 04:39:27;;;;;;;11.25;6.22;;;;;;;-1.46;98.00;96427.63;5036129;28;20056;-83
2021/10/24 04:41:53;;;;;;;16.92;6.68;;;;;;;-1.33;97.81;96422.72;5033483;28;20117;-83
2021/10/24 04:44:18;;;;;;;22.00;6.50;;;;;;;-1.24;97.29;96416.50;5037179;28;20132;-83
2021/10/24 04:46:44;;;;;;;15.68;6.22;;;;;;;-1.30;97.48;96426.72;5060686;28;20033;-82
2021/10/24 04:49:09;;;;;;;18.35;6.57;;;;;;;-1.30;96.71;96412.03;5030716;28;20095;-83
2021/10/24 04:51:35;;;;;;;15.68;6.80;;;;;;;-1.30;96.28;96419.78;5039409;28;20033;-83
2021/10/24 04:54:01;;;;;;;14.10;6.18;;;;;;;-1.30;96.08;96404.28;5042684;28;20048;-83
2021/10/24 04:56:27;;;;;;;14.00;5.97;;;;;;;-1.37;96.26;96405.94;5038196;28;20036;-83
2021/10/24 04:58:52;;;;;;;15.40;6.00;;;;;;;-1.46;96.73;96401.81;5069441;28;20040;-84
2021/10/24 05:01:18;;;;;;;14.50;6.88;;;;;;;-1.55;97.09;96408.00;5053292;28;20046;-84
2021/10/24 05:03:44;;;;;;;17.10;6.82;;;;;;;-1.77;98.27;96410.38;5035343;28;20044;-84
2021/10/24 05:06:10;;;;;;;14.52;7.40;;;;;;;-1.63;97.73;96409.66;5032914;28;20053;-83
2021/10/24 05:08:36;;;;;;;19.63;7.70;;;;;;;-1.75;99.09;96398.13;5075297;28;20044;-84
2021/10/24 05:11:01;;;;;;;16.17;7.22;;;;;;;-1.63;98.58;96404.50;5048791;28;20049;-84
2021/10/24 05:13:27;;;;;;;13.75;6.85;;;;;;;-1.60;98.03;96401.56;5063680;28;20091;-84
2021/10/24 05:15:53;;;;;;;18.08;6.75;;;;;;;-1.61;97.30;96394.81;5057175;28;20044;-84
2021/10/24 05:18:18;;;;;;;17.92;7.05;;;;;;;-1.66;98.71;96391.94;5069319;28;20049;-84
2021/10/24 05:20:44;;;;;;;14.93;6.88;;;;;;;-1.75;99.03;96387.78;5039532;28;20071;-84
2021/10/24 05:23:09;;;;;;;17.58;7.75;;;;;;;-1.61;99.20;96383.66;5035948;28;20041;-84
2021/10/24 05:25:35;;;;;;;15.07;7.32;;;;;;;-1.51;97.48;96378.28;5019892;28;20053;-83
2021/10/24 05:28:01;;;;;;;16.65;7.63;;;;;;;-1.45;98.00;96382.75;5061511;28;20107;-83
2021/10/24 05:30:27;;;;;;;19.08;8.15;;;;;;;-1.36;97.45;96393.84;5040778;28;20048;-84
2021/10/24 05:32:52;;;;;;;17.80;7.28;;;;;;;-1.49;97.42;96376.34;5041267;28;20049;-83
2021/10/24 05:35:18;;;;;;;25.27;7.53;;;;;;;-1.50;97.82;96372.16;5059050;28;20051;-82
2021/10/24 05:37:44;;;;;;;14.25;7.40;;;;;;;-1.49;97.97;96366.03;5072795;28;20047;-84
2021/10/24 05:40:11;;;;;;;17.90;7.22;;;;;;;-1.46;99.35;96376.00;5056638;28;20425;-84
2021/10/24 05:42:38;;;;;;;16.05;8.02;;;;;;;-1.38;98.46;96373.34;5057798;28;20041;-84
2021/10/24 05:45:04;;;;;;;14.35;7.22;;;;;;;-1.29;97.67;96367.16;5039801;28;20457;-84
2021/10/24 05:47:29;;;;;;;17.55;8.15;;;;;;;-1.25;97.37;96378.75;5040108;28;20083;-83
2021/10/24 05:49:55;;;;;;;17.50;6.85;;;;;;;-1.25;96.70;96378.75;5038977;28;20040;-83
2021/10/24 05:52:22;;;;;;;13.93;6.65;;;;;;;-1.41;97.10;96378.84;5072022;28;20108;-84
2021/10/24 05:54:48;;;;;;;16.30;6.97;;;;;;;-1.60;96.96;96378.34;5041305;28;20056;-84
2021/10/24 05:57:14;;;;;;;16.80;7.53;;;;;;;-1.60;97.08;96378.34;5059124;28;20558;-83
2021/10/24 05:59:40;;;;;;;18.20;7.43;;;;;;;-1.62;97.80;96377.72;5049832;28;20043;-83
2021/10/24 06:02:06;;;;;;;22.63;7.43;;;;;;;-1.53;97.47;96380.25;5070124;28;20045;-84
2021/10/24 06:04:32;;;;;;;13.82;6.93;;;;;;;-1.42;97.32;96387.59;5039072;28;20051;-83
2021/10/24 06:06:57;;;;;;;15.77;7.32;;;;;;;-1.50;96.89;96385.84;5060439;28;20633;-84
2021/10/24 06:15:10;;;;;;;20.25;8.30;;;;;;;-1.41;97.07;96391.78;5060142;28;20152;-83
2021/10/24 06:17:37;;;;;;;15.80;7.00;;;;;;;-1.35;96.79;96403.19;5056596;28;20044;-83
2021/10/24 06:20:08;;;;;;;14.40;6.55;;;;;;;-1.35;96.10;96414.34;5024602;28;20045;-83
2021/10/24 06:22:34;;;;;;;15.15;6.90;;;;;;;-1.36;97.10;96412.72;5046752;28;20040;-83
2021/10/24 06:25:00;;;;;;;18.95;7.60;;;;;;;-1.40;97.06;96416.63;5059287;28;20078;-83
2021/10/24 06:27:26;;;;;;;16.88;7.63;;;;;;;-1.27;98.16;96414.25;5058540;28;20580;-82
2021/10/24 06:29:51;;;;;;;19.80;7.90;;;;;;;-1.29;97.63;96405.91;5049858;28;20467;-83
2021/10/24 06:32:17;;;;;;;21.05;7.68;;;;;;;-1.23;98.31;96419.91;5042629;28;20067;-83
2021/10/24 06:34:43;;;;;;;21.35;7.53;;;;;;;-1.25;98.97;96420.06;5055837;28;20079;-83
2021/10/24 06:37:08;;;;;;;15.93;7.93;;;;;;;-1.23;98.16;96412.16;5060549;28;20047;-83
2021/10/24 06:39:34;;;;;;;16.33;7.55;;;;;;;-1.34;98.08;96421.09;5045350;28;20084;-84
2021/10/24 06:42:00;;;;;;;16.65;7.50;;;;;;;-1.28;98.10;96420.44;5044095;28;20090;-83
2021/10/24 06:44:25;;;;;;;19.85;8.27;;;;;;;-1.25;98.67;96422.66;5030702;28;20049;-84
2021/10/24 06:46:51;;;;;;;22.73;8.18;;;;;;;-1.18;98.62;96422.75;5057413;28;20049;-83
2021/10/24 06:49:17;;;;;;;16.17;8.13;;;;;;;-1.16;98.66;96430.34;5042960;28;20042;-83
2021/10/24 06:51:42;;;;;;;17.25;7.95;;;;;;;-1.27;98.55;96424.59;5036751;28;20076;-84
2021/10/24 06:54:08;;;;;;;20.30;8.02;;;;;;;-1.22;99.26;96424.91;5045609;28;20059;-84
2021/10/24 06:56:34;;;;;;;15.48;7.93;;;;;;;-1.08;98.64;96419.94;5019732;28;20715;-84
2021/10/24 06:58:59;;;;;;;18.33;8.27;;;;;;;-1.01;99.50;96428.59;5059131;28;20044;-84
2021/10/24 07:01:25;;;;;;;18.60;9.20;;;;;;;-0.99;99.66;96434.41;5062024;28;20422;-84
2021/10/24 07:03:50;;;;;;;21.52;8.85;;;;;;;-0.85;99.72;96434.63;5045429;28;20059;-84
2021/10/24 07:06:16;;;;;;;22.88;9.50;;;;;;;-0.72;100.00;96424.50;5060062;28;20042;-84
2021/10/24 07:08:42;;;;;;;23.70;9.13;;;;;;;-0.67;100.00;96427.38;5037712;28;20036;-83
2021/10/24 07:11:08;;;;;;;21.17;8.95;;;;;;;-0.57;100.00;96424.53;5040298;28;20037;-85
2021/10/24 07:13:34;;;;;;;20.17;9.65;;;;;;;-0.49;100.00;96426.22;5024987;28;20695;-85
2021/10/24 07:16:00;;;;;;;26.20;10.95;;;;;;;-0.45;100.00;96414.56;5039985;28;20056;-85
2021/10/24 07:18:27;;;;;;;24.50;9.77;;;;;;;-0.33;100.00;96418.31;5021111;28;20472;-85
2021/10/24 07:20:53;;;;;;;23.23;10.80;;;;;;;-0.23;100.00;96418.03;5048656;28;20421;-84
2021/10/24 07:23:18;;;;;;;21.25;10.07;;;;;;;-0.09;100.00;96426.78;5060164;28;20041;-85
2021/10/24 07:25:44;;;;;;;20.88;9.63;;;;;;;0.04;100.00;96419.19;5044637;28;20052;-81
2021/10/24 07:28:09;;;;;;;20.83;9.63;;;;;;;0.15;100.00;96423.91;5034644;28;20045;-81
2021/10/24 07:30:35;;;;;;;18.17;9.15;;;;;;;0.30;100.00;96429.06;5052309;28;20068;-82
2021/10/24 07:33:01;;;;;;;24.65;10.85;;;;;;;0.54;100.00;96428.94;5052429;28;20049;-82
2021/10/24 07:35:26;;;;;;;24.08;9.63;;;;;;;0.56;100.00;96432.13;5051978;28;20045;-81
2021/10/24 07:37:52;;;;;;;18.45;10.20;;;;;;;0.81;100.00;96425.59;5053974;28;20040;-81
2021/10/24 07:40:18;;;;;;;20.38;9.20;;;;;;;0.90;100.00;96422.91;5051656;28;20048;-79
2021/10/24 07:42:44;;;;;;;17.58;8.77;;;;;;;0.95;100.00;96430.91;5022775;28;20048;-79
2021/10/24 07:45:10;;;;;;;15.45;8.48;;;;;;;1.34;100.00;96429.66;5042089;28;20047;-80
2021/10/24 07:47:38;;;;;;;13.68;8.00;;;;;;;1.29;100.00;96429.41;5021142;28;20113;-79
2021/10/24 07:50:06;;;;;;;20.42;8.38;;;;;;;1.26;100.00;96424.59;5034542;28;20769;-78
2021/10/24 07:52:32;;;;;;;15.15;7.93;;;;;;;1.27;100.00;96439.19;5031243;28;20041;-81
2021/10/24 07:54:58;;;;;;;20.30;8.02;;;;;;;1.75;100.00;96428.94;5032351;28;20050;-81
2021/10/24 07:57:23;;;;;;;15.52;8.23;;;;;;;2.03;100.00;96430.69;5017151;28;20126;-79
2021/10/24 07:59:49;;;;;;;12.88;7.03;;;;;;;2.05;99.43;96426.09;5032694;28;20041;-80
2021/10/24 08:02:18;;;;;;;16.90;7.95;;;;;;;1.93;99.23;96432.84;5031532;28;20590;-80
2021/10/24 08:04:48;;;;;;;20.08;7.63;;;;;;;1.91;99.00;96430.41;5014265;28;20106;-80
2021/10/24 08:07:17;;;;;;;13.88;7.25;;;;;;;2.37;97.48;96434.22;5033296;28;20049;-79
2021/10/24 08:09:43;;;;;;;15.43;7.05;;;;;;;2.34;98.40;96429.41;5018802;28;20049;-79
2021/10/24 08:12:09;;;;;;;15.13;6.70;;;;;;;2.64;96.27;96431.72;5032217;28;20118;-80
2021/10/24 08:14:35;;;;;;;11.52;6.68;;;;;;;2.52;96.91;96432.28;5031277;28;20046;-81
2021/10/24 08:17:02;;;;;;;12.35;6.38;;;;;;;2.89;95.87;96437.97;5035401;28;20056;-81
2021/10/24 08:19:28;;;;;;;13.00;5.80;;;;;;;3.11;94.69;96424.78;5047745;28;20102;-78
2021/10/24 08:21:53;;;;;;;11.85;5.60;;;;;;;3.31;93.88;96429.22;5035950;28;20793;-83
2021/10/24 08:24:19;;;;;;;13.88;6.28;;;;;;;3.29;93.98;96432.81;5013988;28;20045;-81
2021/10/24 08:26:44;;;;;;;11.77;6.13;;;;;;;3.14;94.66;96429.59;5014631;28;20069;-81
2021/10/24 08:29:10;;;;;;;10.82;5.57;;;;;;;3.54;93.39;96419.19;5032745;28;20065;-81
2021/10/24 08:31:38;;;;;;;14.52;5.95;;;;;;;3.59;92.76;96424.59;5033556;28;20068;-81
2021/10/24 08:34:04;;;;;;;13.45;5.65;;;;;;;3.62;92.66;96416.38;5024566;28;20052;-81
2021/10/24 08:36:30;;;;;;;12.13;5.65;;;;;;;3.50;93.02;96427.59;5030697;28;20069;-81
2021/10/24 08:38:57;;;;;;;11.30;5.47;;;;;;;3.57;92.90;96421.38;5031895;28;20045;-82
2021/10/24 08:41:29;;;;;;;11.50;5.45;;;;;;;3.81;92.98;96424.34;5031774;28;20046;-80
2021/10/24 08:44:00;;;;;;;10.25;5.10;;;;;;;4.24;89.65;96423.84;5016491;28;20415;-81
2021/10/24 08:46:26;;;;;;;12.07;5.38;;;;;;;4.42;89.47;96430.16;5053056;28;20045;-83
2021/10/24 08:48:52;;;;;;;10.23;4.90;;;;;;;4.62;87.76;96425.66;5050714;28;20048;-84
2021/10/24 08:51:18;;;;;;;10.55;5.07;;;;;;;4.64;86.37;96423.66;5064546;28;20044;-81
2021/10/24 08:53:46;;;;;;;9.80;4.68;;;;;;;4.87;85.98;96427.53;5051897;28;20468;-84
2021/10/24 08:56:16;;;;;;;12.95;5.03;;;;;;;4.55;88.61;96422.28;5047440;28;20045;-84
2021/10/24 08:58:43;;;;;;;10.02;4.60;;;;;;;4.49;87.95;96425.72;5052450;28;20041;-83
2021/10/24 09:01:08;;;;;;;10.13;4.75;;;;;;;4.84;87.01;96433.16;5076098;28;20051;-83
2021/10/24 09:03:36;;;;;;;8.45;4.63;;;;;;;4.77;87.83;96424.56;5045569;28;20033;-81
2021/10/24 09:08:37;;;;;;;7.25;4.80;;;;;;;5.35;84.65;96427.00;5074241;28;20072;-83
2021/10/24 09:11:03;;;;;;;7.72;4.22;;;;;;;5.50;83.06;96423.25;5068625;28;20047;-81
2021/10/24 09:13:32;;;;;;;9.20;4.40;;;;;;;5.50;83.58;96425.88;5086359;28;20082;-82
2021/10/24 09:16:02;;;;;;;8.23;4.53;;;;;;;5.51;84.12;96422.25;5043325;28;20109;-82
2021/10/24 09:18:32;;;;;;;10.80;5.22;;;;;;;5.50;84.99;96420.66;5063368;28;20798;-82
2021/10/24 09:21:19;;;;;;;8.98;4.57;;;;;;;5.73;83.38;96426.06;5078484;28;20825;-84
2021/10/24 09:23:51;;;;;;;8.95;4.55;;;;;;;5.90;83.40;96422.88;5072133;28;20561;-83
2021/10/24 09:26:26;;;;;;;10.02;4.50;;;;;;;5.98;83.27;96417.41;5056071;28;20037;-81
2021/10/24 09:29:00;;;;;;;8.13;4.53;;;;;;;5.94;83.97;96416.22;5077005;28;20048;-82
2021/10/24 09:31:30;;;;;;;9.73;4.65;;;;;;;6.40;81.19;96414.91;5077637;28;20047;-81
2021/10/24 09:34:10;;;;;;;8.43;4.45;;;;;;;6.60;81.02;96413.88;5071464;28;20053;-81
2021/10/24 09:36:59;;;;;;;10.30;4.75;;;;;;;7.02;80.60;96413.88;5049007;28;20044;-81
2021/10/24 09:39:30;;;;;;;11.48;4.20;;;;;;;7.56;75.52;96415.69;5053915;28;20029;-82
2021/10/24 09:42:12;;;;;;;8.15;3.85;;;;;;;8.02;71.39;96416.69;5065056;28;20675;-83
2021/10/24 09:45:06;;;;;;;7.35;4.00;;;;;;;9.14;69.94;96409.34;5062235;28;20047;-82
2021/10/24 09:47:35;;;;;;;7.10;3.70;;;;;;;10.99;64.25;96415.41;5055016;28;20602;-85
2021/10/24 09:50:02;;;;;;;10.52;3.83;;;;;;;12.04;59.88;96409.59;5064851;28;20584;-86
2021/10/24 09:52:32;;;;;;;7.68;3.58;;;;;;;12.39;56.62;96410.03;5020974;28;20061;-85
2021/10/24 09:54:58;;;;;;;7.63;4.05;;;;;;;12.40;55.92;96399.19;5037181;28;20415;-86
2021/10/24 09:57:24;;;;;;;8.00;3.95;;;;;;;12.50;55.92;96406.38;5062585;28;20064;-85
2021/10/24 09:59:54;;;;;;;6.80;3.42;;;;;;;11.97;57.21;96409.03;5055182;28;20041;-85
2021/10/24 10:02:23;;;;;;;8.95;3.60;;;;;;;12.15;57.02;96405.16;5077944;28;20052;-85
2021/10/24 10:04:49;;;;;;;7.40;3.85;;;;;;;12.37;55.52;96406.84;5066175;28;20052;-85
2021/10/24 10:07:18;;;;;;;8.27;3.80;;;;;;;11.71;58.72;96410.69;5056171;28;20043;-87
2021/10/24 10:09:44;;;;;;;8.50;3.72;;;;;;;11.59;60.37;96405.59;5063292;28;20051;-86
2021/10/24 10:12:17;;;;;;;9.88;3.80;;;;;;;13.52;53.71;96399.66;5064747;28;20051;-87
2021/10/24 10:14:55;;;;;;;7.00;3.42;;;;;;;15.38;46.65;96389.81;5070163;28;20064;-87
2021/10/24 10:17:23;;;;;;;6.00;3.40;;;;;;;15.28;46.87;96395.19;5079542;28;20039;-86
2021/10/24 10:19:49;;;;;;;6.68;3.70;;;;;;;16.13;44.53;96397.63;5073383;28;20051;-86
2021/10/24 10:22:34;;;;;;;10.35;3.92;;;;;;;13.64;48.91;96392.22;5052029;28;20037;-86
2021/10/24 10:25:01;;;;;;;5.80;3.63;;;;;;;14.98;47.19;96386.41;5064927;28;20415;-86
2021/10/24 10:27:35;;;;;;;10.63;3.92;;;;;;;15.56;46.45;96382.25;5068681;28;20061;-85
2021/10/24 10:30:09;;;;;;;6.07;3.50;;;;;;;15.92;45.58;96376.63;5080824;28;20047;-86
2021/10/24 10:32:41;;;;;;;7.25;3.40;;;;;;;14.69;48.48;96384.47;5062978;28;20095;-86
2021/10/24 10:35:10;;;;;;;6.80;3.88;;;;;;;13.91;49.88;96385.81;5069491;28;20046;-86
2021/10/24 10:38:01;;;;;;;6.47;3.55;;;;;;;14.19;50.71;96380.97;5080301;28;20040;-85
2021/10/24 10:40:30;;;;;;;6.18;3.50;;;;;;;15.70;45.08;96374.41;5067509;28;20032;-87
2021/10/24 10:42:58;;;;;;;6.97;3.50;;;;;;;15.84;46.21;96375.34;5086477;28;20124;-86
2021/10/24 10:45:36;;;;;;;6.22;3.42;;;;;;;16.30;44.48;96371.38;5069130;28;20044;-87
2021/10/24 10:48:06;;;;;;;6.28;3.28;;;;;;;16.60;43.34;96364.09;5048623;28;20511;-85
2021/10/24 10:50:38;;;;;;;6.53;3.20;;;;;;;15.22;46.27;96375.88;5053287;28;20044;-85
2021/10/24 10:53:09;;;;;;;6.47;3.08;;;;;;;16.01;45.61;96364.28;5040352;28;20117;-84
2021/10/24 10:56:00;;;;;;;6.53;3.50;;;;;;;15.85;45.20;96360.25;5058020;28;20033;-85
2021/10/24 10:58:40;;;;;;;6.93;3.33;;;;;;;15.99;43.02;96363.78;5038211;28;20080;-86
2021/10/24 11:01:16;;;;;;;9.65;3.67;;;;;;;14.78;48.18;96362.69;5056712;28;20094;-86
2021/10/24 11:03:46;;;;;;;6.30;3.25;;;;;;;15.45;45.63;96367.50;5057399;28;20583;-87
2021/10/24 11:06:36;;;;;;;5.85;3.45;;;;;;;15.25;46.85;96363.94;5053825;28;20082;-85
2021/10/24 11:09:07;;;;;;;5.30;3.25;;;;;;;16.53;44.44;96347.72;5057639;28;20060;-86
2021/10/24 11:11:36;;;;;;;7.70;3.38;;;;;;;16.84;42.75;96347.28;5046903;28;20068;-86
2021/10/24 11:14:22;;;;;;;7.10;3.53;;;;;;;16.27;44.15;96345.41;5054392;28;20104;-86
2021/10/24 11:16:57;;;;;;;6.00;3.40;;;;;;;14.63;44.73;96342.41;5051822;28;20052;-85
2021/10/24 11:19:25;;;;;;;6.85;3.45;;;;;;;13.85;48.29;96349.88;5078640;28;20052;-86
2021/10/24 11:22:02;;;;;;;6.68;3.10;;;;;;;16.64;42.60;96333.22;5041166;28;20504;-85
2021/10/24 11:24:51;;;;;;;6.25;3.08;;;;;;;17.13;41.89;96333.84;5054373;28;20060;-85
2021/10/24 11:27:19;;;;;;;6.03;2.80;;;;;;;17.02;41.30;96325.22;5043109;28;20060;-85
2021/10/24 11:29:53;;;;;;;8.30;3.35;;;;;;;18.25;37.85;96324.09;5024482;28;20121;-84
2021/10/24 11:32:38;;;;;;;6.95;3.17;;;;;;;18.00;37.75;96323.50;5046590;28;20159;-83
2021/10/24 11:35:03;;;;;;;5.88;3.20;;;;;;;18.86;37.04;96327.28;5050388;28;20056;-81
2021/10/24 11:37:41;;;;;;;6.15;2.80;;;;;;;18.09;37.88;96326.28;5063300;28;20143;-81